Time;durP1;ratioP1;P1;durP2;ratioP2;P2;SDS_P1;SDS_P2;PMS_P1;PMS_P2;Temp;Humidity;BMP_temperature;BMP_pressure;BME280_temperature;BME280_humidity;BME280_pressure;Samples;Min_cycle;Max_cycle;Signal;HPM_P1;HPM_P2
2023/01/26 00:01:20;;;;;;;8.60;3.10;;;35.90;66.90;;;;;;5022990;28;20100;-67
2023/01/26 00:03:48;;;;;;;6.50;3.25;;;36.20;66.00;;;;;;5009494;28;20467;-68
2023/01/26 00:06:17;;;;;;;10.57;4.45;;;36.40;63.70;;;;;;4992014;28;20117;-67
2023/01/26 00:08:51;;;;;;;10.40;4.30;;;36.40;64.60;;;;;;5010082;28;20024;-69
2023/01/26 00:11:25;;;;;;;6.20;3.72;;;36.50;62.60;;;;;;5012768;28;20037;-69
2023/01/26 00:13:53;;;;;;;5.70;3.22;;;36.40;65.30;;;;;;5021184;28;20540;-71
2023/01/26 00:16:21;;;;;;;7.97;3.35;;;36.40;64.40;;;;;;5012212;28;20061;-70
2023/01/26 00:18:48;;;;;;;5.38;3.45;;;36.70;60.40;;;;;;5013784;28;20029;-68
2023/01/26 00:21:21;;;;;;;9.50;3.53;;;36.60;59.80;;;;;;5024759;28;20030;-64
2023/01/26 00:23:50;;;;;;;6.95;3.10;;;36.50;59.70;;;;;;5010300;28;20495;-67
2023/01/26 00:26:20;;;;;;;4.45;3.22;;;36.70;62.40;;;;;;5020187;28;20048;-68
2023/01/26 00:28:47;;;;;;;5.57;3.35;;;36.70;58.10;;;;;;5010683;28;20053;-68
2023/01/26 00:31:20;;;;;;;6.82;3.33;;;36.90;62.10;;;;;;5016065;28;20021;-64
2023/01/26 00:33:48;;;;;;;10.02;4.15;;;37.00;54.40;;;;;;5010277;28;20021;-66
2023/01/26 00:36:15;;;;;;;6.05;3.47;;;37.10;57.20;;;;;;4994700;28;20063;-65
2023/01/26 00:38:43;;;;;;;8.50;4.60;;;37.10;57.90;;;;;;5015854;28;20068;-66
2023/01/26 00:43:56;;;;;;;4.93;2.90;;;37.50;59.70;;;;;;5029401;28;20090;-69
2023/01/26 00:46:24;;;;;;;8.25;3.38;;;37.70;53.80;;;;;;5027500;28;20043;-66
2023/01/26 00:48:51;;;;;;;7.30;3.72;;;37.40;53.90;;;;;;5025166;28;20014;-68
2023/01/26 00:51:18;;;;;;;6.97;3.65;;;37.20;55.10;;;;;;5018626;28;20034;-65
2023/01/26 00:53:46;;;;;;;8.30;3.42;;;37.20;58.30;;;;;;5023423;28;20022;-64
2023/01/26 00:56:13;;;;;;;6.63;3.75;;;37.20;57.00;;;;;;5012538;28;20033;-65
2023/01/26 00:58:41;;;;;;;7.82;3.10;;;37.40;57.90;;;;;;5012510;28;20026;-65
2023/01/26 01:01:09;;;;;;;9.27;4.22;;;37.40;59.20;;;;;;5012288;28;20029;-65
2023/01/26 01:03:36;;;;;;;6.03;3.30;;;37.50;56.20;;;;;;5013538;28;20450;-66
2023/01/26 01:06:03;;;;;;;6.82;2.97;;;37.50;55.40;;;;;;4994354;28;20124;-65
2023/01/26 01:08:31;;;;;;;4.85;2.70;;;37.60;56.10;;;;;;5024142;28;20548;-67
2023/01/26 01:11:09;;;;;;;7.22;3.80;;;37.60;53.00;;;;;;5030448;28;20040;-67
2023/01/26 01:13:37;;;;;;;8.18;3.75;;;37.90;57.10;;;;;;5005014;28;20096;-67
2023/01/26 01:16:10;;;;;;;7.85;4.00;;;38.10;57.90;;;;;;5023149;28;20080;-67
2023/01/26 01:18:37;;;;;;;9.98;4.18;;;38.10;57.50;;;;;;5023701;28;20071;-66
2023/01/26 01:21:13;;;;;;;6.95;3.70;;;38.30;56.60;;;;;;5011530;28;20526;-67
2023/01/26 01:23:41;;;;;;;9.13;3.60;;;38.30;55.40;;;;;;5019031;28;20030;-66
2023/01/26 01:26:09;;;;;;;5.13;2.88;;;38.10;52.40;;;;;;5026649;28;20116;-64
2023/01/26 01:28:38;;;;;;;11.13;3.80;;;38.10;50.50;;;;;;5027439;28;20060;-66
2023/01/26 01:31:07;;;;;;;9.25;3.70;;;37.80;51.50;;;;;;5008303;28;20033;-66
2023/01/26 01:33:34;;;;;;;9.68;3.88;;;37.60;50.40;;;;;;5008372;28;20045;-67
2023/01/26 01:36:07;;;;;;;7.45;3.75;;;37.90;54.60;;;;;;5009233;28;20376;-66
2023/01/26 01:38:35;;;;;;;8.68;3.25;;;38.30;51.20;;;;;;5010362;28;20021;-68
2023/01/26 01:41:03;;;;;;;7.13;3.30;;;38.40;49.30;;;;;;5007162;28;20033;-68
2023/01/26 01:43:30;;;;;;;4.75;2.75;;;38.10;51.50;;;;;;5008724;28;20069;-67
2023/01/26 01:46:00;;;;;;;12.50;2.85;;;38.00;50.50;;;;;;4991010;28;20057;-67
2023/01/26 01:48:40;;;;;;;7.45;2.60;;;38.20;54.90;;;;;;5008755;28;20054;-67
2023/01/26 01:51:14;;;;;;;4.88;2.33;;;38.60;51.60;;;;;;5009847;28;20132;-67
2023/01/26 01:53:47;;;;;;;6.28;2.88;;;38.60;49.10;;;;;;5029471;28;20450;-67
2023/01/26 01:56:22;;;;;;;4.47;2.55;;;38.50;48.40;;;;;;5026076;28;20046;-67
2023/01/26 01:58:54;;;;;;;4.18;2.38;;;38.50;47.00;;;;;;5009883;28;20022;-68
2023/01/26 02:01:21;;;;;;;7.00;2.72;;;38.50;48.10;;;;;;5010302;28;20061;-67
2023/01/26 02:03:53;;;;;;;7.85;2.90;;;38.70;47.70;;;;;;5012283;28;20024;-66
2023/01/26 02:06:28;;;;;;;4.88;2.40;;;38.80;46.50;;;;;;4995170;28;20034;-68
2023/01/26 02:08:57;;;;;;;5.28;2.53;;;38.60;48.20;;;;;;5018024;28;20068;-68
2023/01/26 02:11:33;;;;;;;4.50;1.90;;;38.40;45.30;;;;;;5013872;28;20501;-68
2023/01/26 02:14:05;;;;;;;3.63;2.33;;;38.40;46.40;;;;;;5012387;28;20026;-69
2023/01/26 02:16:32;;;;;;;3.35;2.15;;;38.30;45.80;;;;;;4992205;28;20030;-69
2023/01/26 02:19:00;;;;;;;3.80;1.20;;;38.10;46.20;;;;;;5014838;28;20025;-68
2023/01/26 02:21:28;;;;;;;4.75;1.10;;;37.80;41.10;;;;;;5009292;28;20034;-68
2023/01/26 02:24:10;;;;;;;5.45;1.52;;;37.70;41.40;;;;;;5013915;28;20355;-68
2023/01/26 02:26:38;;;;;;;3.67;1.83;;;38.00;40.80;;;;;;5019984;28;20471;-69
2023/01/26 02:29:09;;;;;;;2.70;1.38;;;38.00;40.80;;;;;;5006726;28;20033;-69
2023/01/26 02:31:38;;;;;;;4.95;1.55;;;38.30;41.40;;;;;;4993443;28;20136;-69
2023/01/26 02:34:05;;;;;;;3.10;1.67;;;38.40;42.10;;;;;;5001286;28;20029;-68
2023/01/26 02:36:33;;;;;;;3.75;1.63;;;38.60;43.30;;;;;;5007782;28;20507;-68
2023/01/26 02:39:31;;;;;;;7.10;1.50;;;38.70;44.20;;;;;;5007708;28;20038;-68
2023/01/26 02:44:44;;;;;;;4.88;1.77;;;38.70;41.70;;;;;;5011062;28;20032;-69
2023/01/26 02:47:17;;;;;;;5.20;1.83;;;38.70;42.60;;;;;;4992342;28;20049;-68
2023/01/26 02:49:49;;;;;;;1.85;1.33;;;38.30;42.40;;;;;;5005634;28;20026;-69
2023/01/26 02:52:26;;;;;;;1.95;1.17;;;38.20;41.70;;;;;;5009317;28;20371;-68
2023/01/26 02:57:40;;;;;;;3.20;1.70;;;38.20;44.00;;;;;;5006373;28;20053;-65
2023/01/26 03:00:15;;;;;;;2.78;1.52;;;38.70;42.70;;;;;;5008805;28;20033;-65
2023/01/26 03:02:42;;;;;;;3.38;1.60;;;38.50;40.90;;;;;;5010230;28;20049;-65
2023/01/26 03:05:10;;;;;;;3.92;1.10;;;38.80;40.60;;;;;;5010001;28;20030;-65
2023/01/26 03:07:37;;;;;;;3.33;1.20;;;39.00;40.70;;;;;;5020379;28;20434;-65
2023/01/26 03:10:06;;;;;;;2.03;1.20;;;39.10;40.20;;;;;;5029906;28;20033;-66
2023/01/26 03:12:33;;;;;;;2.03;0.93;;;39.20;40.50;;;;;;5012176;28;20037;-66
2023/01/26 03:17:46;;;;;;;3.20;1.30;;;39.40;42.30;;;;;;5010737;28;20560;-65
2023/01/26 03:28:31;;;;;;;1.77;1.05;;;38.90;40.70;;;;;;5020543;28;20073;-65
2023/01/26 03:30:58;;;;;;;2.45;1.23;;;38.20;41.00;;;;;;4992129;28;20030;-64
2023/01/26 03:33:26;;;;;;;2.08;1.20;;;37.80;40.70;;;;;;5009588;28;20022;-64
2023/01/26 03:35:54;;;;;;;3.33;1.17;;;37.30;41.40;;;;;;5009487;28;20026;-64
2023/01/26 03:38:21;;;;;;;2.45;1.00;;;37.00;40.80;;;;;;5009574;28;20100;-64
2023/01/26 03:57:20;;;;;;;3.78;1.40;;;34.50;43.60;;;;;;5014009;28;20052;-64
2023/01/26 03:59:47;;;;;;;4.35;1.42;;;33.80;53.10;;;;;;5008834;28;20028;-63
2023/01/26 04:10:30;;;;;;;5.22;2.78;;;30.60;83.80;;;;;;5004893;28;20059;-63
2023/01/26 04:21:28;;;;;;;14.20;3.85;;;29.10;94.50;;;;;;5016871;28;20033;-65
2023/01/26 04:23:57;;;;;;;7.22;2.03;;;29.00;97.80;;;;;;5019336;28;20068;-62
2023/01/26 04:26:36;;;;;;;3.35;2.15;;;28.60;97.40;;;;;;4994379;28;20621;-62
2023/01/26 04:29:14;;;;;;;9.70;2.75;;;27.80;96.70;;;;;;5026457;28;20083;-62
2023/01/26 04:31:42;;;;;;;8.27;2.30;;;27.10;99.90;;;;;;5016843;28;20033;-65
2023/01/26 04:34:15;;;;;;;4.70;1.85;;;26.60;99.90;;;;;;5028268;28;20044;-65
2023/01/26 04:36:43;;;;;;;5.20;1.75;;;26.20;99.90;;;;;;5014320;28;20049;-66
2023/01/26 04:39:10;;;;;;;5.95;2.78;;;26.00;99.90;;;;;;5000586;28;20029;-65
2023/01/26 04:41:37;;;;;;;6.70;3.35;;;25.90;99.90;;;;;;5016943;28;20058;-65
2023/01/26 04:44:05;;;;;;;9.15;3.50;;;26.10;99.90;;;;;;5026222;28;20454;-65
2023/01/26 04:46:32;;;;;;;6.90;3.88;;;26.30;99.90;;;;;;5013609;28;20035;-65
2023/01/26 04:49:00;;;;;;;8.52;3.70;;;26.60;99.90;;;;;;5005807;28;20039;-64
2023/01/26 04:51:27;;;;;;;6.07;2.83;;;27.10;99.90;;;;;;5000272;28;20057;-64
2023/01/26 04:53:55;;;;;;;13.65;2.08;;;27.60;99.90;;;;;;5016976;28;20399;-64
2023/01/26 04:56:24;;;;;;;8.60;2.10;;;28.00;99.90;;;;;;4980167;28;20038;-65
2023/01/26 04:58:53;;;;;;;6.57;2.30;;;28.30;99.90;;;;;;5022541;28;20478;-65
2023/01/26 05:01:21;;;;;;;9.05;2.45;;;28.50;99.90;;;;;;5019670;28;20021;-65
2023/01/26 05:03:48;;;;;;;6.75;2.20;;;28.70;99.90;;;;;;5005677;28;20505;-65
2023/01/26 05:06:16;;;;;;;7.20;3.38;;;29.10;99.90;;;;;;5025679;28;20418;-65
2023/01/26 05:08:44;;;;;;;8.00;2.78;;;29.30;99.90;;;;;;5015144;28;20052;-65
2023/01/26 05:11:11;;;;;;;8.10;2.60;;;29.50;99.90;;;;;;5019539;28;20107;-66
2023/01/26 05:13:40;;;;;;;4.63;3.08;;;29.80;99.90;;;;;;5021010;28;20455;-64
2023/01/26 05:16:07;;;;;;;6.20;3.38;;;30.40;99.90;;;;;;4992780;28;20042;-64
2023/01/26 05:18:35;;;;;;;9.98;2.83;;;30.70;97.40;;;;;;5015282;28;20097;-63
2023/01/26 05:21:02;;;;;;;4.65;2.65;;;30.70;90.50;;;;;;5016788;28;20030;-65
2023/01/26 05:23:30;;;;;;;6.65;2.92;;;30.60;90.70;;;;;;5007476;28;20022;-65
2023/01/26 05:25:57;;;;;;;4.25;2.67;;;30.70;82.30;;;;;;5018032;28;20107;-65
2023/01/26 05:28:24;;;;;;;4.30;2.75;;;30.80;86.20;;;;;;5019667;28;20036;-65
2023/01/26 05:30:52;;;;;;;6.32;2.53;;;30.90;83.60;;;;;;5018513;28;20021;-65
2023/01/26 05:33:20;;;;;;;5.88;2.88;;;31.00;78.80;;;;;;4989959;28;20064;-66
2023/01/26 05:35:52;;;;;;;5.28;2.42;;;31.30;82.10;;;;;;5007253;28;20625;-65
2023/01/26 05:38:20;;;;;;;4.45;2.17;;;31.20;77.00;;;;;;5017212;28;20443;-65
2023/01/26 05:40:48;;;;;;;4.88;2.40;;;31.30;77.30;;;;;;5027136;28;20018;-65
2023/01/26 05:43:15;;;;;;;6.75;2.10;;;31.20;73.90;;;;;;5021158;28;20057;-65
2023/01/26 05:45:43;;;;;;;3.15;2.10;;;31.20;73.50;;;;;;5024497;28;20474;-65
2023/01/26 05:48:10;;;;;;;6.15;2.45;;;31.20;75.10;;;;;;5021400;28;20087;-65
2023/01/26 05:50:38;;;;;;;4.88;2.15;;;31.30;72.80;;;;;;5030350;28;20026;-65
2023/01/26 05:53:05;;;;;;;3.55;2.20;;;31.20;71.40;;;;;;5029622;28;20156;-65
2023/01/26 05:55:33;;;;;;;2.53;1.83;;;31.20;69.90;;;;;;5018268;28;20357;-65
2023/01/26 05:58:00;;;;;;;5.22;2.00;;;31.20;66.70;;;;;;5026968;28;20485;-66
2023/01/26 06:00:27;;;;;;;4.45;2.10;;;31.40;67.60;;;;;;4996030;28;20021;-65
2023/01/26 06:02:55;;;;;;;5.82;2.20;;;31.50;67.00;;;;;;5010223;28;20372;-65
2023/01/26 06:05:22;;;;;;;4.90;2.03;;;31.60;65.90;;;;;;5019279;28;20395;-65
2023/01/26 06:07:50;;;;;;;4.75;2.15;;;31.60;65.70;;;;;;5024638;28;20021;-64
2023/01/26 06:10:17;;;;;;;2.85;1.80;;;31.50;64.90;;;;;;5013862;28;20390;-66
2023/01/26 06:12:45;;;;;;;5.70;2.08;;;31.70;64.20;;;;;;5015089;28;20050;-66
2023/01/26 06:15:12;;;;;;;3.05;1.75;;;32.10;62.50;;;;;;5020021;28;20033;-66
2023/01/26 06:17:40;;;;;;;4.18;1.80;;;32.40;61.90;;;;;;5030242;28;20038;-65
2023/01/26 06:20:08;;;;;;;4.35;2.13;;;32.30;61.60;;;;;;5017023;28;20033;-66
2023/01/26 06:22:36;;;;;;;4.18;2.03;;;32.10;61.20;;;;;;5017488;28;20100;-63
2023/01/26 06:25:03;;;;;;;4.05;2.28;;;32.10;63.20;;;;;;5022554;28;20379;-65
2023/01/26 06:27:30;;;;;;;7.75;3.20;;;31.80;60.00;;;;;;5020851;28;20013;-63
2023/01/26 06:29:58;;;;;;;3.55;1.77;;;31.60;62.30;;;;;;5016773;28;20060;-63
2023/01/26 06:32:26;;;;;;;4.85;2.75;;;31.50;57.20;;;;;;5027329;28;20498;-63
2023/01/26 06:34:54;;;;;;;4.38;1.95;;;31.50;57.40;;;;;;5002497;28;20156;-65
2023/01/26 06:37:21;;;;;;;4.45;1.90;;;31.50;58.50;;;;;;5019092;28;20034;-68
2023/01/26 06:39:48;;;;;;;2.90;1.90;;;31.60;58.80;;;;;;5024459;28;20060;-69
2023/01/26 06:42:16;;;;;;;3.10;1.92;;;31.90;57.20;;;;;;4995706;28;20431;-68
2023/01/26 06:44:43;;;;;;;4.13;1.90;;;32.20;57.10;;;;;;5024447;28;20048;-68
2023/01/26 06:47:11;;;;;;;4.03;2.00;;;32.40;57.50;;;;;;5017487;28;20109;-68
2023/01/26 06:49:38;;;;;;;7.70;1.95;;;32.50;56.60;;;;;;5021745;28;20021;-68
2023/01/26 06:52:26;;;;;;;3.78;1.90;;;32.30;56.40;;;;;;5013073;28;20438;-68
2023/01/26 06:54:54;;;;;;;4.28;1.88;;;32.10;53.80;;;;;;5022905;28;20604;-67
2023/01/26 06:57:21;;;;;;;3.72;2.30;;;32.10;53.70;;;;;;5020034;28;20076;-68
2023/01/26 06:59:48;;;;;;;2.78;1.75;;;32.00;55.10;;;;;;5015184;28;20105;-68
2023/01/26 07:02:20;;;;;;;4.47;1.67;;;31.90;55.30;;;;;;5026379;28;20021;-68
2023/01/26 07:04:49;;;;;;;5.20;2.00;;;31.80;55.40;;;;;;5008639;28;20044;-67
2023/01/26 07:07:16;;;;;;;4.20;2.08;;;31.70;57.80;;;;;;5018850;28;20045;-67
2023/01/26 07:09:44;;;;;;;6.75;2.42;;;31.60;59.00;;;;;;5023307;28;20242;-67
2023/01/26 07:12:11;;;;;;;5.57;2.42;;;31.50;59.20;;;;;;5010035;28;20049;-68
2023/01/26 07:14:38;;;;;;;6.22;2.60;;;31.40;59.90;;;;;;5005701;28;20022;-67
2023/01/26 07:17:06;;;;;;;2.90;2.08;;;31.30;60.20;;;;;;5008727;28;20398;-67
2023/01/26 07:19:33;;;;;;;7.30;3.03;;;31.20;60.70;;;;;;5014618;28;20037;-70
2023/01/26 07:22:01;;;;;;;5.50;3.25;;;31.20;62.60;;;;;;5014612;28;20037;-67
2023/01/26 07:24:29;;;;;;;6.65;2.30;;;31.10;63.40;;;;;;4993837;28;20021;-67
2023/01/26 07:26:57;;;;;;;6.63;3.03;;;31.00;62.10;;;;;;5019646;28;20022;-67
2023/01/26 07:29:25;;;;;;;4.93;2.30;;;30.90;63.80;;;;;;5018086;28;20026;-67
2023/01/26 07:31:52;;;;;;;6.60;2.40;;;30.90;63.90;;;;;;5023298;28;20554;-68
2023/01/26 07:34:20;;;;;;;4.75;2.45;;;30.80;64.00;;;;;;5010348;28;20026;-67
2023/01/26 07:36:50;;;;;;;6.40;3.70;;;30.80;66.40;;;;;;5020466;28;20120;-66
2023/01/26 07:39:18;;;;;;;7.50;3.45;;;30.50;68.00;;;;;;5018067;28;20034;-66
2023/01/26 07:41:45;;;;;;;4.90;2.72;;;30.40;67.20;;;;;;5022840;28;20059;-66
2023/01/26 07:44:12;;;;;;;5.05;2.67;;;30.20;65.50;;;;;;5025208;28;20064;-65
2023/01/26 07:46:40;;;;;;;5.32;2.38;;;30.00;64.70;;;;;;4987461;28;20029;-67
2023/01/26 07:49:08;;;;;;;4.38;2.58;;;29.90;63.40;;;;;;4996600;28;20038;-66
2023/01/26 07:51:38;;;;;;;5.32;2.55;;;29.80;64.20;;;;;;4989537;28;20069;-67
2023/01/26 07:54:06;;;;;;;6.20;2.88;;;29.70;65.30;;;;;;5009872;28;20022;-67
2023/01/26 07:56:34;;;;;;;8.10;3.25;;;29.60;67.20;;;;;;5014939;28;20132;-67
2023/01/26 07:59:02;;;;;;;6.28;3.67;;;29.50;67.70;;;;;;5014174;28;20049;-67
2023/01/26 08:01:29;;;;;;;5.50;3.20;;;29.40;67.30;;;;;;5019587;28;20040;-66
2023/01/26 08:03:57;;;;;;;8.40;3.20;;;29.40;69.30;;;;;;4989020;28;20559;-66
2023/01/26 08:06:24;;;;;;;8.95;4.18;;;29.30;70.70;;;;;;5007967;28;20035;-68
2023/01/26 08:08:54;;;;;;;6.78;3.03;;;29.30;73.00;;;;;;4987711;28;20920;-67
2023/01/26 08:11:24;;;;;;;5.53;3.05;;;29.20;83.00;;;;;;5010390;28;20040;-68
2023/01/26 08:13:52;;;;;;;11.30;4.35;;;28.80;81.50;;;;;;5020707;28;20071;-69
2023/01/26 08:16:19;;;;;;;7.75;4.68;;;28.40;89.70;;;;;;5022557;28;20104;-68
2023/01/26 08:18:47;;;;;;;8.52;3.83;;;28.10;94.60;;;;;;5003947;28;20491;-67
2023/01/26 08:21:16;;;;;;;6.90;4.40;;;27.80;95.10;;;;;;5017195;28;20033;-68
2023/01/26 08:23:47;;;;;;;8.55;4.97;;;27.70;96.60;;;;;;5011076;28;20022;-68
2023/01/26 08:26:14;;;;;;;6.43;3.95;;;27.70;97.50;;;;;;5013082;28;20034;-68
2023/01/26 08:28:42;;;;;;;8.57;4.68;;;27.70;96.50;;;;;;5021561;28;20070;-68
2023/01/26 08:31:17;;;;;;;10.20;3.40;;;27.60;96.00;;;;;;5015659;28;20037;-67
2023/01/26 08:33:45;;;;;;;5.60;3.67;;;27.60;94.50;;;;;;5012575;28;20802;-64
2023/01/26 08:36:14;;;;;;;6.18;3.47;;;27.50;94.40;;;;;;5007529;28;20499;-63
2023/01/26 08:38:42;;;;;;;7.18;3.53;;;27.40;94.90;;;;;;4988284;28;20030;-64
2023/01/26 08:41:10;;;;;;;7.65;4.10;;;27.20;95.50;;;;;;5005731;28;20021;-64
2023/01/26 08:43:38;;;;;;;7.05;3.40;;;27.10;96.00;;;;;;5012648;28;20033;-64
2023/01/26 08:46:05;;;;;;;5.82;3.45;;;27.00;96.30;;;;;;5011608;28;21687;-64
2023/01/26 08:48:33;;;;;;;9.18;3.38;;;26.90;96.50;;;;;;5021857;28;20174;-64
2023/01/26 08:51:02;;;;;;;5.80;4.15;;;26.80;97.40;;;;;;5015235;28;20106;-64
2023/01/26 08:53:35;;;;;;;12.18;4.07;;;26.70;96.20;;;;;;4995256;28;20059;-64
2023/01/26 08:56:06;;;;;;;6.60;3.45;;;26.60;96.50;;;;;;5016846;28;20037;-64
2023/01/26 08:58:35;;;;;;;7.70;3.70;;;26.50;96.30;;;;;;5011430;28;20288;-64
2023/01/26 09:01:11;;;;;;;5.72;3.90;;;26.40;96.70;;;;;;5023999;28;20676;-65
2023/01/26 09:03:39;;;;;;;11.25;4.10;;;26.30;96.90;;;;;;5021118;28;20037;-65
2023/01/26 09:06:08;;;;;;;6.18;3.67;;;26.20;97.40;;;;;;5011419;28;20030;-64
2023/01/26 09:08:35;;;;;;;6.20;3.42;;;26.00;97.30;;;;;;5020782;28;20822;-64
2023/01/26 09:11:06;;;;;;;7.28;4.00;;;26.00;97.20;;;;;;5015381;28;20025;-69
2023/01/26 09:13:35;;;;;;;10.27;4.03;;;25.90;96.50;;;;;;5009127;28;20042;-70
2023/01/26 09:16:11;;;;;;;7.10;3.85;;;25.80;97.00;;;;;;5014198;28;20040;-70
2023/01/26 09:18:39;;;;;;;10.82;3.95;;;25.70;97.90;;;;;;4996939;28;20105;-69
2023/01/26 09:21:08;;;;;;;7.63;3.58;;;25.60;99.90;;;;;;5012822;28;20139;-66
2023/01/26 09:23:37;;;;;;;7.88;3.92;;;25.50;99.90;;;;;;4992210;28;20084;-68
2023/01/26 09:26:05;;;;;;;7.38;3.40;;;25.30;99.90;;;;;;5005714;28;20032;-68
2023/01/26 09:28:32;;;;;;;9.65;3.88;;;25.20;99.90;;;;;;5014344;28;20022;-69
2023/01/26 09:31:10;;;;;;;8.90;4.18;;;25.00;99.90;;;;;;5020498;28;20053;-69
2023/01/26 09:33:37;;;;;;;10.88;4.20;;;25.00;99.90;;;;;;5009957;28;20029;-67
2023/01/26 09:36:07;;;;;;;11.60;4.25;;;24.90;99.90;;;;;;4988578;28;20046;-65
2023/01/26 09:38:34;;;;;;;11.52;5.75;;;24.80;99.90;;;;;;5004344;28;20030;-65
2023/01/26 09:41:20;;;;;;;13.40;5.25;;;24.70;99.90;;;;;;4989287;28;20029;-65
2023/01/26 09:44:10;;;;;;;9.02;3.58;;;24.70;99.90;;;;;;5008082;28;20152;-65
2023/01/26 09:46:52;;;;;;;10.85;3.97;;;24.60;99.90;;;;;;5007543;28;20458;-65
2023/01/26 09:49:30;;;;;;;10.20;3.65;;;24.50;99.90;;;;;;4988637;28;20080;-65
2023/01/26 09:52:09;;;;;;;8.77;3.50;;;24.50;99.90;;;;;;5012644;28;20033;-65
2023/01/26 09:54:45;;;;;;;11.38;3.97;;;24.50;99.90;;;;;;5006404;28;20068;-65
2023/01/26 09:57:20;;;;;;;11.30;3.72;;;24.40;99.90;;;;;;5007542;28;20073;-65
2023/01/26 09:59:57;;;;;;;10.88;3.72;;;24.40;99.90;;;;;;5006845;28;20026;-65
2023/01/26 10:02:30;;;;;;;11.57;3.75;;;24.40;99.90;;;;;;5010167;28;20033;-65
2023/01/26 10:05:02;;;;;;;10.40;3.95;;;24.40;99.90;;;;;;5009332;28;20058;-65
2023/01/26 10:07:30;;;;;;;10.38;3.67;;;24.30;99.90;;;;;;5010232;28;20026;-65
2023/01/26 10:09:57;;;;;;;16.88;5.22;;;24.30;99.90;;;;;;5008228;28;20026;-65
2023/01/26 10:12:37;;;;;;;13.90;4.15;;;24.20;99.90;;;;;;5014932;28;20049;-65
2023/01/26 10:15:16;;;;;;;19.80;5.90;;;24.20;99.90;;;;;;5022124;28;20029;-64
2023/01/26 10:17:46;;;;;;;18.15;5.05;;;24.00;99.90;;;;;;4993074;28;20034;-66
2023/01/26 10:20:33;;;;;;;17.17;6.13;;;23.70;99.90;;;;;;4990302;28;20026;-63
2023/01/26 10:23:26;;;;;;;17.50;5.72;;;23.20;99.90;;;;;;4987911;28;20117;-64
2023/01/26 10:25:58;;;;;;;14.55;7.05;;;22.90;99.90;;;;;;5006861;28;20025;-65
2023/01/26 10:28:35;;;;;;;20.70;8.02;;;22.60;99.90;;;;;;5013495;28;20021;-66
2023/01/26 10:31:11;;;;;;;29.65;10.00;;;22.30;99.90;;;;;;5013076;28;20495;-65
2023/01/26 10:33:44;;;;;;;28.52;9.85;;;22.20;99.90;;;;;;5008566;28;20452;-63
2023/01/26 10:36:13;;;;;;;26.52;9.90;;;22.00;99.90;;;;;;5004327;28;20041;-63
2023/01/26 10:38:44;;;;;;;22.73;9.63;;;21.90;99.90;;;;;;5011768;28;20028;-63
2023/01/26 10:41:27;;;;;;;23.27;8.30;;;21.80;99.90;;;;;;5027547;28;20057;-62
2023/01/26 10:44:01;;;;;;;18.58;9.60;;;21.70;99.90;;;;;;5025475;28;20049;-63
2023/01/26 10:46:37;;;;;;;25.27;8.48;;;21.60;99.90;;;;;;5015066;28;20581;-63
2023/01/26 10:49:16;;;;;;;24.90;8.98;;;21.50;99.90;;;;;;5012896;28;20113;-63
2023/01/26 10:52:14;;;;;;;21.38;10.50;;;21.40;99.90;;;;;;5010956;28;20040;-63
2023/01/26 10:54:43;;;;;;;24.02;11.48;;;21.40;99.90;;;;;;5011518;28;20029;-63
2023/01/26 10:57:18;;;;;;;24.30;11.30;;;21.40;99.90;;;;;;5008028;28;20069;-62
2023/01/26 11:00:32;;;;;;;34.78;15.50;;;21.30;99.90;;;;;;5012404;28;20386;-63
2023/01/26 11:03:18;;;;;;;32.33;12.95;;;21.30;99.90;;;;;;4982479;28;20061;-63
2023/01/26 11:06:04;;;;;;;24.80;11.63;;;21.30;99.90;;;;;;5009390;28;20037;-63
2023/01/26 11:08:37;;;;;;;26.45;11.82;;;21.30;99.90;;;;;;5004750;28;20053;-62
2023/01/26 11:11:10;;;;;;;31.35;12.65;;;21.30;99.90;;;;;;5019953;28;20224;-63
2023/01/26 11:13:38;;;;;;;28.35;13.07;;;21.20;99.90;;;;;;4998956;28;20054;-62
2023/01/26 11:16:26;;;;;;;28.67;13.93;;;21.20;99.90;;;;;;5012822;28;20474;-62
2023/01/26 11:18:57;;;;;;;27.67;13.88;;;21.20;99.90;;;;;;5010021;28;20052;-61
2023/01/26 11:21:44;;;;;;;38.72;15.10;;;21.20;99.90;;;;;;5010059;28;20325;-63
2023/01/26 11:24:42;;;;;;;33.88;16.02;;;21.20;99.90;;;;;;5010008;28;20028;-62
2023/01/26 11:27:28;;;;;;;42.65;16.42;;;21.30;99.90;;;;;;5023359;28;20025;-63
2023/01/26 11:30:05;;;;;;;37.22;15.40;;;21.30;99.90;;;;;;5029603;28;20110;-62
2023/01/26 11:32:53;;;;;;;33.13;13.73;;;21.30;99.90;;;;;;5029958;28;20018;-62
2023/01/26 11:35:26;;;;;;;34.17;13.70;;;21.30;99.90;;;;;;5021104;28;20039;-62
2023/01/26 11:38:24;;;;;;;32.05;14.85;;;21.30;99.90;;;;;;4988989;28;20415;-62
2023/01/26 11:41:19;;;;;;;32.70;14.32;;;21.30;99.90;;;;;;5004556;28;20091;-62
2023/01/26 11:43:50;;;;;;;;;;;21.40;99.90;;;;;;5010284;28;20391;-63
2023/01/26 11:46:21;;;;;;;34.20;13.45;;;21.40;99.90;;;;;;4991998;28;19921;-63
2023/01/26 11:49:00;;;;;;;28.75;15.10;;;21.30;99.90;;;;;;5010863;28;20018;-62
2023/01/26 11:51:30;;;;;;;39.58;15.52;;;21.30;99.90;;;;;;5009711;28;20030;-63
2023/01/26 11:54:09;;;;;;;30.15;14.35;;;21.30;99.90;;;;;;5017567;28;20030;-61
2023/01/26 11:57:07;;;;;;;29.58;14.68;;;21.30;99.90;;;;;;5009717;28;20063;-62
2023/01/26 11:59:45;;;;;;;32.53;14.30;;;21.30;99.90;;;;;;5022819;28;20033;-61
2023/01/26 12:02:33;;;;;;;32.50;14.77;;;21.30;99.90;;;;;;5012009;28;20033;-62
2023/01/26 12:05:13;;;;;;;33.22;14.70;;;21.30;99.90;;;;;;4999317;28;20030;-62
2023/01/26 12:08:15;;;;;;;38.75;14.50;;;21.20;99.90;;;;;;5009691;28;20033;-62
2023/01/26 12:11:21;;;;;;;32.58;15.98;;;21.20;99.90;;;;;;4998807;28;20045;-62
2023/01/26 12:14:07;;;;;;;39.10;16.50;;;21.10;99.90;;;;;;5012521;28;20093;-61
2023/01/26 12:16:44;;;;;;;40.75;17.35;;;21.10;99.90;;;;;;5023065;28;20065;-61
2023/01/26 12:19:26;;;;;;;27.75;16.75;;;21.00;99.90;;;;;;5009345;28;20022;-61
2023/01/26 12:21:57;;;;;;;28.85;15.75;;;21.00;99.90;;;;;;5003558;28;20387;-61
2023/01/26 12:24:39;;;;;;;38.55;17.75;;;20.90;99.90;;;;;;5009490;28;20030;-62
2023/01/26 12:27:15;;;;;;;35.28;16.55;;;20.90;99.90;;;;;;5008966;28;20366;-62
2023/01/26 12:30:25;;;;;;;28.08;16.13;;;20.90;99.90;;;;;;5012754;28;20068;-62
2023/01/26 12:32:52;;;;;;;30.35;18.42;;;20.80;99.90;;;;;;4998551;28;20088;-62
2023/01/26 12:35:44;;;;;;;35.50;19.23;;;20.90;99.90;;;;;;5011662;28;20033;-62
2023/01/26 12:38:32;;;;;;;33.30;19.33;;;20.80;99.90;;;;;;5020773;28;20037;-62
2023/01/26 12:41:20;;;;;;;35.85;16.92;;;20.80;99.90;;;;;;4994776;28;20026;-62
2023/01/26 12:43:57;;;;;;;34.08;16.40;;;20.70;99.90;;;;;;5010844;28;20119;-62
2023/01/26 12:46:27;;;;;;;27.10;14.73;;;20.60;99.90;;;;;;5009191;28;20280;-62
2023/01/26 12:49:02;;;;;;;24.85;15.65;;;20.50;99.90;;;;;;5013670;28;20018;-62
2023/01/26 12:51:47;;;;;;;32.90;16.42;;;20.50;99.90;;;;;;5012354;28;20033;-61
2023/01/26 12:54:27;;;;;;;23.05;13.30;;;20.40;99.90;;;;;;5013276;28;20033;-61
2023/01/26 12:56:59;;;;;;;21.48;12.27;;;20.30;99.90;;;;;;5017589;28;20064;-61
2023/01/26 12:59:33;;;;;;;15.98;9.73;;;20.30;99.90;;;;;;5001322;28;20026;-62
2023/01/26 13:02:20;;;;;;;20.00;9.88;;;20.20;99.90;;;;;;5010427;28;20032;-62
2023/01/26 13:04:48;;;;;;;18.10;9.93;;;20.10;99.90;;;;;;5020017;28;20053;-62
2023/01/26 13:07:35;;;;;;;14.73;9.02;;;20.00;99.90;;;;;;4994150;28;20026;-62
2023/01/26 13:10:16;;;;;;;15.50;9.48;;;20.00;99.90;;;;;;4998469;28;20053;-62
2023/01/26 13:12:54;;;;;;;15.75;9.07;;;20.00;99.90;;;;;;5010756;28;20046;-62
2023/01/26 13:15:25;;;;;;;16.50;8.40;;;19.90;99.90;;;;;;5015102;28;20448;-61
2023/01/26 13:17:58;;;;;;;14.82;10.70;;;19.90;99.90;;;;;;4995149;28;20045;-61
2023/01/26 13:20:46;;;;;;;15.88;8.80;;;19.90;99.90;;;;;;5019223;28;20061;-61
2023/01/26 13:23:42;;;;;;;13.00;8.48;;;19.90;99.90;;;;;;5011996;28;20026;-62
2023/01/26 13:26:25;;;;;;;11.95;9.30;;;20.00;99.90;;;;;;5014081;28;20022;-62
2023/01/26 13:29:12;;;;;;;15.18;9.23;;;20.00;99.90;;;;;;5016142;28;20057;-61
2023/01/26 13:31:40;;;;;;;13.07;8.02;;;20.00;99.90;;;;;;5011084;28;20029;-62
2023/01/26 13:34:09;;;;;;;14.82;7.95;;;20.10;99.90;;;;;;5012278;28;20087;-63
2023/01/26 13:36:39;;;;;;;12.52;8.35;;;20.10;99.90;;;;;;5010789;28;20117;-62
2023/01/26 13:39:32;;;;;;;12.57;8.73;;;20.20;99.90;;;;;;5022757;28;20030;-62
2023/01/26 13:41:59;;;;;;;16.80;8.70;;;20.20;99.90;;;;;;5014147;28;20040;-62
2023/01/26 13:44:41;;;;;;;11.88;7.90;;;20.30;99.90;;;;;;5015881;28;20030;-62
2023/01/26 13:47:16;;;;;;;12.15;7.95;;;20.30;99.90;;;;;;5011621;28;20026;-63
2023/01/26 13:49:45;;;;;;;12.93;6.95;;;20.40;99.90;;;;;;4997136;28;20028;-62
2023/01/26 13:52:24;;;;;;;14.23;7.10;;;20.40;99.90;;;;;;5009988;28;20034;-62
2023/01/26 13:54:56;;;;;;;9.70;7.03;;;20.50;99.90;;;;;;5010277;28;20025;-62
2023/01/26 13:57:29;;;;;;;13.32;6.82;;;20.50;99.90;;;;;;5014439;28;20084;-62
2023/01/26 14:00:00;;;;;;;14.85;6.13;;;20.50;99.90;;;;;;5028890;28;20072;-62
2023/01/26 14:02:33;;;;;;;11.48;6.80;;;20.50;99.90;;;;;;5012236;28;20030;-62